Vicksburg, Mississippi
Current Conditions -  °F | °C
As of 6:15 PM on Sunday 23 Nov 2014 (Local Time) from KVKS Reporting Station
Clear Clear  
Wind Chill: 66°   Ceiling: Unl
Heat Index: 66°   Visibility: 10mi
Dew Point: 57°   Wind: 12mph
Humidity: 73%   Direction: 190°S
Pressure: 29.54"   Gusts: NA
Location:  32.35°N, 90.88°W
Report Text: KVKS 240015Z AUTO 19010KT 10SM CLR 19/14 A2954 RMK A01
Loading
Personal Weather Stations






























Interactive Weather Map New forecast layout! Learn more

10-Day Weather Forecast

Advertisements
Track Severe Weather on mobile